Time;durP1;ratioP1;P1;durP2;ratioP2;P2;SDS_P1;SDS_P2;PMS_P1;PMS_P2;Temp;Humidity;BMP_temperature;BMP_pressure;BME280_temperature;BME280_humidity;BME280_pressure;Samples;Min_cycle;Max_cycle;Signal;HPM_P1;HPM_P2
2023/04/24 00:01:25;;;;;;;3.38;3.03;;;12.90;99.90;;;;;;5065903;28;20047;-68
2023/04/24 00:04:00;;;;;;;4.15;2.83;;;12.90;99.90;;;;;;5112426;29;20042;-67
2023/04/24 00:06:34;;;;;;;3.40;3.10;;;12.80;99.90;;;;;;5114969;28;20043;-64
2023/04/24 00:09:11;;;;;;;4.13;3.17;;;12.70;99.90;;;;;;5114487;28;20449;-66
2023/04/24 00:11:42;;;;;;;3.63;2.95;;;12.60;99.90;;;;;;5115069;28;20038;-67
2023/04/24 00:14:19;;;;;;;3.50;2.92;;;12.60;99.90;;;;;;5149955;28;20050;-69
2023/04/24 00:16:51;;;;;;;5.63;3.20;;;12.50;99.90;;;;;;5114869;28;20049;-68
2023/04/24 00:19:28;;;;;;;3.55;2.92;;;12.40;99.90;;;;;;5129720;28;20045;-66
2023/04/24 00:22:02;;;;;;;2.92;2.63;;;12.30;99.90;;;;;;5097659;28;20047;-66
2023/04/24 00:24:36;;;;;;;4.07;2.80;;;12.20;99.90;;;;;;5114561;28;20047;-67
2023/04/24 00:27:12;;;;;;;3.20;2.90;;;12.10;99.90;;;;;;5112266;28;20347;-66
2023/04/24 00:29:46;;;;;;;3.60;2.80;;;12.10;99.90;;;;;;5115274;28;20042;-65
2023/04/24 00:32:20;;;;;;;3.25;2.92;;;12.20;99.90;;;;;;5134983;28;20042;-68
2023/04/24 00:34:52;;;;;;;3.22;2.85;;;12.10;99.90;;;;;;5100517;28;20385;-66
2023/04/24 00:37:29;;;;;;;3.22;2.92;;;12.00;99.90;;;;;;5117270;28;20050;-67
2023/04/24 00:40:00;;;;;;;3.03;2.75;;;11.90;99.90;;;;;;5132221;28;20543;-67
2023/04/24 00:42:33;;;;;;;3.53;3.22;;;11.80;99.90;;;;;;5148432;28;20046;-65
2023/04/24 00:45:06;;;;;;;3.88;3.00;;;11.70;99.90;;;;;;5109166;28;20226;-69
2023/04/24 00:47:43;;;;;;;3.17;2.70;;;11.70;99.90;;;;;;5119135;28;20453;-68
2023/04/24 00:50:21;;;;;;;3.30;2.92;;;11.60;99.90;;;;;;5139169;28;20665;-67
2023/04/24 00:53:00;;;;;;;2.03;1.85;;;11.50;99.90;;;;;;5121868;28;20053;-64
2023/04/24 00:55:37;;;;;;;3.58;2.70;;;11.50;99.90;;;;;;5117259;28;20104;-68
2023/04/24 00:58:15;;;;;;;3.17;2.63;;;11.50;99.90;;;;;;5132151;28;20609;-63
2023/04/24 01:00:52;;;;;;;2.88;2.40;;;11.40;99.90;;;;;;5219133;23;21368;-67
2023/04/24 01:03:31;;;;;;;3.42;3.13;;;11.40;99.90;;;;;;5196765;23;20045;-67
2023/04/24 01:06:07;;;;;;;2.50;2.30;;;11.30;99.90;;;;;;5143717;28;20526;-64
2023/04/24 01:08:42;;;;;;;3.08;2.70;;;11.20;99.90;;;;;;5153323;28;20034;-68
2023/04/24 01:11:19;;;;;;;2.97;2.35;;;11.10;99.90;;;;;;5136447;28;20250;-68
2023/04/24 01:13:51;;;;;;;2.80;2.60;;;11.00;99.90;;;;;;5153089;28;20066;-69
2023/04/24 01:16:26;;;;;;;2.50;2.30;;;10.90;99.90;;;;;;5134445;28;20064;-67
2023/04/24 01:18:57;;;;;;;;;;;10.90;99.90;;;;;;5170737;28;20416;-66
2023/04/24 01:21:37;;;;;;;2.33;2.13;;;10.90;99.90;;;;;;5137534;28;19924;-66
2023/04/24 01:24:14;;;;;;;2.47;2.22;;;10.80;99.90;;;;;;5137648;28;20034;-68
2023/04/24 01:26:46;;;;;;;2.78;2.45;;;10.80;99.90;;;;;;5137570;28;20065;-66
2023/04/24 01:29:21;;;;;;;2.65;2.40;;;10.80;99.90;;;;;;5153451;28;20046;-67
2023/04/24 01:31:55;;;;;;;3.20;2.45;;;10.80;99.90;;;;;;5150436;28;20049;-69
2023/04/24 01:34:27;;;;;;;2.70;2.33;;;10.80;99.90;;;;;;5119766;28;20044;-69
2023/04/24 01:37:01;;;;;;;3.85;3.05;;;10.70;99.90;;;;;;5136270;28;20041;-70
2023/04/24 01:39:40;;;;;;;2.75;2.47;;;10.70;99.90;;;;;;5152553;28;20392;-68
2023/04/24 01:42:18;;;;;;;4.07;2.53;;;10.70;99.90;;;;;;5153733;28;20033;-67
2023/04/24 01:44:56;;;;;;;2.30;2.10;;;10.60;99.90;;;;;;5131531;28;20053;-66
2023/04/24 01:47:37;;;;;;;4.18;2.70;;;10.60;99.90;;;;;;5150716;28;20749;-68
2023/04/24 01:50:26;;;;;;;2.45;2.25;;;10.70;99.90;;;;;;5124197;28;20354;-66
2023/04/24 01:53:00;;;;;;;3.13;2.83;;;10.70;99.90;;;;;;5166644;28;20480;-66
2023/04/24 01:55:34;;;;;;;4.03;2.85;;;10.70;99.90;;;;;;5139269;28;20057;-71
2023/04/24 01:58:11;;;;;;;3.50;3.03;;;10.60;99.90;;;;;;5129614;28;20041;-68
2023/04/24 02:00:44;;;;;;;2.67;2.28;;;10.70;99.90;;;;;;5149344;28;20050;-64
2023/04/24 02:03:20;;;;;;;2.30;2.10;;;10.70;99.90;;;;;;5140436;28;20062;-65
2023/04/24 02:05:58;;;;;;;3.17;2.88;;;10.70;99.90;;;;;;5126807;28;20050;-66
2023/04/24 02:08:35;;;;;;;2.78;2.35;;;10.70;99.90;;;;;;5131971;28;20043;-67
2023/04/24 02:11:09;;;;;;;3.30;2.28;;;10.80;99.90;;;;;;5100201;29;20031;-68
2023/04/24 02:13:42;;;;;;;2.95;2.70;;;10.90;99.90;;;;;;5095315;29;20059;-65
2023/04/24 02:16:15;;;;;;;3.15;2.40;;;10.90;99.90;;;;;;5109795;28;20050;-67
2023/04/24 02:18:47;;;;;;;2.92;2.60;;;10.90;99.90;;;;;;5112958;29;20041;-69
2023/04/24 02:21:21;;;;;;;2.70;2.50;;;10.80;99.90;;;;;;5121191;28;20035;-68
2023/04/24 02:23:52;;;;;;;2.17;1.95;;;10.80;99.90;;;;;;5132987;28;20037;-65
2023/04/24 02:26:31;;;;;;;3.47;2.25;;;10.80;99.90;;;;;;5132188;28;20022;-69
2023/04/24 02:29:05;;;;;;;2.88;2.03;;;10.80;99.90;;;;;;5127379;28;20043;-65
2023/04/24 02:31:43;;;;;;;2.40;2.10;;;10.90;99.90;;;;;;5097720;28;20366;-67
2023/04/24 02:34:20;;;;;;;2.35;2.13;;;10.80;99.90;;;;;;5126344;28;20046;-66
2023/04/24 02:36:54;;;;;;;2.97;2.08;;;10.80;99.90;;;;;;5131761;28;20052;-68
2023/04/24 02:39:28;;;;;;;;;;;10.80;99.90;;;;;;5101433;28;20067;-66
2023/04/24 02:42:03;;;;;;;2.38;2.17;;;10.80;99.90;;;;;;5131645;28;19918;-66
2023/04/24 02:44:36;;;;;;;;;;;10.80;99.90;;;;;;5131079;28;20057;-68
2023/04/24 02:47:13;;;;;;;2.30;1.70;;;10.70;99.90;;;;;;5097367;28;19925;-62
2023/04/24 02:49:47;;;;;;;1.83;1.73;;;10.70;99.90;;;;;;5119411;28;20203;-67
2023/04/24 02:52:21;;;;;;;2.60;1.92;;;10.60;99.90;;;;;;5109455;28;20079;-66
2023/04/24 02:54:55;;;;;;;1.63;1.52;;;10.40;99.90;;;;;;5124416;28;20051;-67
2023/04/24 02:57:31;;;;;;;2.97;2.00;;;10.40;99.90;;;;;;5115938;28;20166;-66
2023/04/24 03:00:07;;;;;;;2.08;1.88;;;10.30;99.90;;;;;;5106470;28;20275;-68
2023/04/24 03:02:41;;;;;;;2.13;1.90;;;10.30;99.90;;;;;;5136800;28;20053;-68
2023/04/24 03:05:19;;;;;;;2.85;2.03;;;10.20;99.90;;;;;;5144023;28;20064;-70
2023/04/24 03:07:53;;;;;;;2.40;2.20;;;10.20;99.90;;;;;;5134107;28;20060;-68
2023/04/24 03:10:25;;;;;;;;;;;10.10;99.90;;;;;;5136130;28;20453;-67
2023/04/24 03:12:59;;;;;;;1.77;1.67;;;10.00;99.90;;;;;;5135415;28;20448;-69
2023/04/24 03:15:33;;;;;;;2.15;1.90;;;10.00;99.90;;;;;;5148912;28;20030;-66
2023/04/24 03:18:07;;;;;;;2.42;2.22;;;10.00;99.90;;;;;;5119496;28;20046;-68
2023/04/24 03:20:41;;;;;;;6.78;2.50;;;9.90;99.90;;;;;;5118289;28;20056;-67
2023/04/24 03:23:12;;;;;;;2.95;1.88;;;9.90;99.90;;;;;;5118124;28;20046;-67
2023/04/24 03:25:45;;;;;;;2.08;1.75;;;9.90;99.90;;;;;;5151077;28;20038;-69
2023/04/24 03:28:16;;;;;;;2.60;1.77;;;9.90;99.90;;;;;;5121938;28;20042;-67
2023/04/24 03:30:48;;;;;;;1.90;1.70;;;9.90;99.90;;;;;;5145076;28;20247;-66
2023/04/24 03:33:22;;;;;;;2.50;2.03;;;9.90;99.90;;;;;;5119153;28;20030;-69
2023/04/24 03:35:56;;;;;;;1.90;1.80;;;9.90;99.90;;;;;;5118091;28;20053;-67
2023/04/24 03:38:32;;;;;;;2.33;1.85;;;9.90;99.90;;;;;;5117789;28;20050;-64
2023/04/24 03:41:06;;;;;;;1.98;1.77;;;9.90;99.90;;;;;;5102321;28;20050;-68
2023/04/24 03:43:42;;;;;;;1.92;1.83;;;10.10;99.90;;;;;;5117937;28;20160;-66
2023/04/24 03:46:17;;;;;;;1.80;1.70;;;10.10;99.90;;;;;;5117260;28;20046;-67
2023/04/24 03:48:54;;;;;;;2.28;1.85;;;10.10;99.90;;;;;;5122157;28;20057;-69
2023/04/24 03:51:30;;;;;;;2.58;1.52;;;10.20;99.90;;;;;;5144059;28;20674;-67
2023/04/24 03:54:04;;;;;;;2.17;1.95;;;10.40;99.90;;;;;;5131993;28;20050;-67
2023/04/24 03:56:36;;;;;;;2.50;1.98;;;10.40;99.90;;;;;;5118171;28;20053;-67
2023/04/24 03:59:11;;;;;;;1.85;1.73;;;10.60;99.90;;;;;;5133602;28;20046;-68
2023/04/24 04:01:47;;;;;;;1.80;1.67;;;10.70;99.90;;;;;;5147915;28;20044;-65
2023/04/24 04:04:22;;;;;;;1.75;1.65;;;10.70;99.90;;;;;;5146547;28;20064;-68
2023/04/24 04:06:54;;;;;;;2.45;2.03;;;10.80;99.90;;;;;;5124251;28;20048;-66
2023/04/24 04:09:26;;;;;;;2.03;1.83;;;10.90;99.90;;;;;;5156345;28;20048;-66
2023/04/24 04:12:00;;;;;;;2.35;2.15;;;11.00;99.90;;;;;;5173635;28;20048;-67
2023/04/24 04:14:36;;;;;;;3.00;2.20;;;11.50;99.90;;;;;;5140479;28;20301;-67
2023/04/24 04:17:09;;;;;;;2.20;2.00;;;11.60;99.90;;;;;;5155855;28;20207;-67
2023/04/24 04:19:49;;;;;;;2.22;2.03;;;11.70;99.90;;;;;;5156603;28;20046;-66
2023/04/24 04:22:28;;;;;;;2.05;1.95;;;11.90;99.90;;;;;;5140081;28;20057;-67
2023/04/24 04:28:51;;;;;;;2.10;1.90;;;12.40;99.90;;;;;;5173061;28;20267;-64
2023/04/24 04:31:25;;;;;;;1.70;1.60;;;12.60;99.90;;;;;;5140437;28;20037;-67
2023/04/24 04:33:57;;;;;;;3.28;2.13;;;12.70;99.90;;;;;;5144906;28;20042;-65
2023/04/24 04:36:29;;;;;;;2.00;1.90;;;12.80;99.90;;;;;;5160361;28;20069;-68
2023/04/24 04:39:03;;;;;;;1.98;1.50;;;12.80;99.90;;;;;;5160354;28;20050;-67
2023/04/24 04:41:40;;;;;;;1.98;1.58;;;12.80;99.90;;;;;;5160285;28;20042;-66
2023/04/24 04:44:12;;;;;;;3.17;1.60;;;12.80;99.90;;;;;;5177388;28;20032;-68
2023/04/24 04:46:47;;;;;;;1.88;1.70;;;12.80;99.90;;;;;;5159324;28;20333;-65
2023/04/24 04:49:23;;;;;;;2.63;2.00;;;12.80;99.90;;;;;;5175969;28;20029;-69
2023/04/24 04:51:57;;;;;;;1.73;1.58;;;12.80;99.90;;;;;;5175645;28;20034;-68
2023/04/24 04:54:36;;;;;;;2.05;1.95;;;12.80;99.90;;;;;;5143061;28;20042;-67
2023/04/24 04:57:07;;;;;;;1.60;1.50;;;12.90;99.90;;;;;;5175793;28;20044;-67
2023/04/24 04:59:42;;;;;;;1.83;1.70;;;13.00;99.90;;;;;;5192041;28;20042;-69
2023/04/24 05:02:16;;;;;;;1.77;1.67;;;13.10;99.90;;;;;;5156124;28;20336;-67
2023/04/24 05:04:53;;;;;;;1.90;1.70;;;13.20;99.90;;;;;;5113677;28;20053;-67
2023/04/24 05:07:26;;;;;;;2.13;1.92;;;13.30;99.90;;;;;;5162238;28;20042;-68
2023/04/24 05:10:00;;;;;;;3.17;2.33;;;13.40;99.90;;;;;;5138038;28;20046;-66
2023/04/24 05:12:34;;;;;;;2.67;1.60;;;13.40;99.90;;;;;;5136871;28;20049;-68
2023/04/24 05:15:08;;;;;;;2.53;2.33;;;13.50;99.90;;;;;;5119273;28;20046;-66
2023/04/24 05:17:45;;;;;;;2.08;1.88;;;13.50;99.90;;;;;;5153529;28;20046;-67
2023/04/24 05:20:17;;;;;;;6.18;2.33;;;13.60;99.90;;;;;;5120503;28;20337;-66
2023/04/24 05:22:51;;;;;;;1.90;1.75;;;13.70;99.90;;;;;;5120788;28;20037;-68
2023/04/24 05:25:27;;;;;;;2.10;1.90;;;13.80;99.90;;;;;;5110328;28;20065;-68
2023/04/24 05:28:01;;;;;;;2.13;1.95;;;13.90;99.90;;;;;;5104147;28;20049;-68
2023/04/24 05:30:36;;;;;;;1.92;1.83;;;14.00;99.90;;;;;;5149122;28;20042;-68
2023/04/24 05:33:17;;;;;;;2.83;2.22;;;14.10;99.90;;;;;;5119841;28;20030;-69
2023/04/24 05:35:55;;;;;;;2.30;2.10;;;14.10;99.90;;;;;;5143463;28;20039;-68
2023/04/24 05:38:29;;;;;;;2.20;2.00;;;14.20;99.90;;;;;;5141498;28;20035;-69
2023/04/24 05:41:01;;;;;;;2.83;1.50;;;14.20;99.90;;;;;;5144718;28;20057;-65
2023/04/24 05:43:38;;;;;;;1.70;1.60;;;14.30;99.90;;;;;;5114332;28;20039;-70
2023/04/24 05:46:15;;;;;;;1.85;1.63;;;14.40;99.90;;;;;;5129225;28;20031;-69
2023/04/24 05:48:47;;;;;;;2.67;2.03;;;14.50;99.90;;;;;;5130463;28;20046;-67
2023/04/24 05:51:20;;;;;;;3.17;2.40;;;14.50;99.90;;;;;;5151655;28;20347;-68
2023/04/24 05:53:57;;;;;;;2.10;1.95;;;14.60;99.90;;;;;;5118588;28;20054;-67
2023/04/24 05:56:28;;;;;;;1.50;1.40;;;14.50;99.90;;;;;;5115259;28;20031;-69
2023/04/24 05:59:04;;;;;;;1.60;1.50;;;14.40;99.90;;;;;;5132726;28;20344;-66
2023/04/24 06:01:36;;;;;;;1.70;1.60;;;14.50;99.90;;;;;;5140776;28;20043;-69
2023/04/24 06:04:14;;;;;;;1.45;1.35;;;14.50;99.90;;;;;;5089578;28;20286;-67
2023/04/24 06:06:50;;;;;;;1.77;1.65;;;14.60;99.90;;;;;;5085419;29;20108;-68
2023/04/24 06:09:25;;;;;;;1.60;1.50;;;14.70;99.90;;;;;;5096594;29;20054;-67
2023/04/24 06:11:59;;;;;;;1.50;1.40;;;14.60;99.90;;;;;;5097484;28;20038;-68
2023/04/24 06:14:31;;;;;;;1.50;1.40;;;14.60;99.90;;;;;;5118626;28;20042;-64
2023/04/24 06:17:07;;;;;;;2.55;1.40;;;14.70;99.90;;;;;;5119349;28;20320;-65
2023/04/24 06:19:44;;;;;;;1.30;1.20;;;14.60;99.90;;;;;;5124416;28;20043;-65
2023/04/24 06:22:23;;;;;;;1.50;1.40;;;14.70;99.90;;;;;;5126440;28;20437;-68
2023/04/24 06:24:58;;;;;;;1.40;1.30;;;14.50;99.90;;;;;;5143463;28;20055;-68
2023/04/24 06:27:35;;;;;;;1.60;1.50;;;14.60;99.90;;;;;;5130011;28;20037;-68
2023/04/24 06:30:08;;;;;;;3.00;1.50;;;14.70;99.90;;;;;;5121842;28;20254;-67
2023/04/24 06:32:40;;;;;;;1.13;1.10;;;14.70;99.90;;;;;;5110842;28;20238;-68
2023/04/24 06:35:12;;;;;;;1.58;1.48;;;14.80;99.90;;;;;;5097100;28;20051;-66
2023/04/24 06:37:56;;;;;;;1.63;1.52;;;15.00;99.90;;;;;;5131498;28;20036;-66
2023/04/24 06:40:30;;;;;;;1.17;1.17;;;15.20;99.90;;;;;;5101607;28;20267;-65
2023/04/24 06:43:06;;;;;;;1.05;1.05;;;15.20;99.90;;;;;;5093922;29;20058;-67
2023/04/24 06:45:39;;;;;;;1.40;1.30;;;15.30;99.90;;;;;;5123227;28;20051;-66
2023/04/24 06:48:16;;;;;;;1.10;1.10;;;15.30;99.90;;;;;;5125120;28;20051;-68
2023/04/24 06:50:48;;;;;;;1.05;1.05;;;15.20;99.90;;;;;;5109199;28;20054;-70
2023/04/24 06:53:25;;;;;;;1.02;1.02;;;15.30;99.90;;;;;;5108869;28;20177;-66
2023/04/24 06:56:01;;;;;;;1.23;1.10;;;15.30;99.90;;;;;;5118801;28;20065;-68
2023/04/24 06:58:35;;;;;;;1.17;1.17;;;15.30;99.90;;;;;;5106236;29;20222;-65
2023/04/24 07:01:06;;;;;;;1.17;1.17;;;15.20;99.90;;;;;;5119291;28;20051;-69
2023/04/24 07:03:40;;;;;;;1.58;1.48;;;15.10;99.90;;;;;;5133398;28;20042;-67
2023/04/24 07:06:21;;;;;;;1.30;1.20;;;15.00;99.90;;;;;;5100886;28;20042;-64
2023/04/24 07:08:56;;;;;;;0.90;0.90;;;15.00;99.90;;;;;;5125770;28;20393;-66
2023/04/24 07:11:31;;;;;;;1.50;1.40;;;15.00;99.90;;;;;;5130143;28;20054;-69
2023/04/24 07:14:07;;;;;;;1.20;1.10;;;15.00;99.90;;;;;;5131115;28;20047;-68
2023/04/24 07:16:40;;;;;;;1.05;1.05;;;15.10;99.90;;;;;;5095518;28;20320;-68
2023/04/24 07:19:15;;;;;;;1.30;1.20;;;14.90;99.90;;;;;;5131135;28;20362;-66
2023/04/24 07:21:46;;;;;;;;;;;14.80;99.90;;;;;;5088306;28;20054;-70
2023/04/24 07:24:18;;;;;;;1.00;1.00;;;14.70;99.90;;;;;;5129476;28;20116;-70
2023/04/24 07:26:51;;;;;;;0.90;0.90;;;14.60;1.00;;;;;;5120965;28;20521;-68
2023/04/24 07:29:25;;;;;;;1.10;1.10;;;14.70;1.00;;;;;;5109599;28;20480;-67
2023/04/24 07:31:59;;;;;;;1.52;1.42;;;14.80;1.00;;;;;;5078529;28;20249;-68
2023/04/24 07:34:36;;;;;;;1.35;1.25;;;14.70;1.00;;;;;;5119340;28;20045;-68
2023/04/24 07:37:08;;;;;;;1.15;1.10;;;14.60;1.00;;;;;;5136540;28;20054;-66
2023/04/24 07:39:44;;;;;;;1.20;1.10;;;14.40;1.00;;;;;;5114660;28;20314;-67
2023/04/24 07:42:16;;;;;;;0.90;0.90;;;14.30;1.00;;;;;;5113540;28;20542;-67
2023/04/24 07:44:47;;;;;;;1.05;1.05;;;14.30;1.00;;;;;;5131900;28;20030;-68
2023/04/24 07:47:20;;;;;;;1.30;1.20;;;14.20;1.00;;;;;;5126721;28;20031;-68
2023/04/24 07:49:51;;;;;;;0.93;0.93;;;14.30;1.00;;;;;;5112982;28;20473;-67
2023/04/24 07:52:25;;;;;;;1.50;1.40;;;14.20;1.00;;;;;;5129803;28;20216;-67
2023/04/24 07:55:00;;;;;;;1.23;1.20;;;14.30;1.00;;;;;;5089534;29;20047;-67
2023/04/24 07:57:31;;;;;;;;;;;14.20;1.00;;;;;;5107038;28;20273;-66
2023/04/24 08:00:05;;;;;;;1.42;1.33;;;14.20;1.00;;;;;;5120732;28;19910;-67
2023/04/24 08:02:39;;;;;;;1.55;1.45;;;14.40;1.00;;;;;;5112262;28;20050;-65
2023/04/24 08:05:11;;;;;;;1.30;1.20;;;14.40;1.00;;;;;;5114107;28;20383;-67
2023/04/24 08:07:46;;;;;;;1.30;1.20;;;14.40;1.00;;;;;;5109933;28;20410;-66
2023/04/24 08:10:20;;;;;;;1.20;1.10;;;14.40;1.00;;;;;;5132736;28;20030;-67
2023/04/24 08:12:55;;;;;;;1.23;1.23;;;14.40;1.00;;;;;;5137613;28;20057;-67
2023/04/24 08:15:32;;;;;;;1.00;1.00;;;14.40;1.00;;;;;;5129539;28;20049;-67
2023/04/24 08:18:07;;;;;;;1.10;1.08;;;14.30;1.00;;;;;;5103700;28;20060;-69
2023/04/24 08:20:38;;;;;;;;;;;14.20;1.00;;;;;;5128153;28;20035;-66
2023/04/24 08:23:10;;;;;;;1.30;1.30;;;13.70;96.00;;;;;;5110866;28;19920;-67
2023/04/24 08:25:41;;;;;;;1.10;1.10;;;13.10;99.90;;;;;;5129772;28;20161;-67
2023/04/24 08:28:19;;;;;;;1.25;1.17;;;12.80;99.90;;;;;;5138580;28;20043;-66
2023/04/24 08:30:54;;;;;;;1.00;1.00;;;12.50;99.90;;;;;;5134906;28;20367;-67
2023/04/24 08:33:33;;;;;;;1.00;1.00;;;12.20;99.90;;;;;;5116237;28;20046;-67
2023/04/24 08:36:08;;;;;;;1.33;1.30;;;12.10;99.90;;;;;;5125951;28;20337;-68
2023/04/24 08:38:42;;;;;;;1.55;1.45;;;12.00;99.90;;;;;;5133927;28;20285;-68
2023/04/24 08:41:16;;;;;;;1.25;1.10;;;12.00;99.90;;;;;;5139864;28;20034;-67
2023/04/24 08:43:51;;;;;;;2.45;2.35;;;12.00;99.90;;;;;;5147670;28;20058;-66
2023/04/24 08:46:24;;;;;;;1.00;1.00;;;11.90;99.90;;;;;;5146412;28;20038;-66
2023/04/24 08:49:01;;;;;;;1.17;1.08;;;11.90;99.90;;;;;;5094630;28;20215;-67
2023/04/24 08:51:33;;;;;;;1.10;1.10;;;11.90;99.90;;;;;;5138225;28;20360;-65
2023/04/24 08:54:08;;;;;;;0.70;0.70;;;11.80;99.90;;;;;;5145758;28;20040;-66
2023/04/24 08:56:44;;;;;;;0.70;0.70;;;11.80;99.90;;;;;;5136931;28;20072;-63
2023/04/24 08:59:16;;;;;;;0.70;0.70;;;11.70;99.90;;;;;;5148319;28;20046;-67
2023/04/24 09:01:54;;;;;;;0.80;0.80;;;11.70;99.90;;;;;;5146680;28;20030;-68
2023/04/24 09:04:28;;;;;;;0.93;0.93;;;11.70;99.90;;;;;;5083895;28;20328;-66
2023/04/24 09:07:02;;;;;;;0.90;0.90;;;11.80;99.90;;;;;;5101107;28;20160;-66
2023/04/24 09:09:37;;;;;;;;;;;11.80;99.90;;;;;;5097901;28;20050;-67
2023/04/24 09:12:11;;;;;;;0.90;0.90;;;11.90;99.90;;;;;;5114423;28;20198;-67
2023/04/24 09:14:44;;;;;;;;;;;12.00;99.90;;;;;;5074396;28;20308;-66
2023/04/24 09:17:22;;;;;;;0.82;0.82;;;12.10;99.90;;;;;;5115731;28;19917;-66
2023/04/24 09:19:57;;;;;;;0.95;0.95;;;12.30;99.90;;;;;;5100620;29;20054;-63
2023/04/24 09:22:34;;;;;;;0.80;0.80;;;12.30;99.90;;;;;;5097860;28;20244;-68
2023/04/24 09:25:08;;;;;;;1.10;0.88;;;12.40;99.90;;;;;;5094402;28;20051;-65
2023/04/24 09:27:55;;;;;;;1.15;1.15;;;12.40;99.90;;;;;;5125376;28;20043;-67
2023/04/24 09:30:27;;;;;;;0.80;0.80;;;12.40;99.90;;;;;;5085094;28;20074;-68
2023/04/24 09:33:15;;;;;;;0.70;0.70;;;12.40;99.90;;;;;;5131074;28;20060;-66
2023/04/24 09:35:54;;;;;;;0.90;0.90;;;12.40;99.90;;;;;;5125577;28;20053;-68
2023/04/24 09:38:40;;;;;;;1.00;0.75;;;12.40;99.90;;;;;;5103440;28;20057;-65
2023/04/24 09:41:16;;;;;;;0.75;0.75;;;12.50;99.90;;;;;;5095018;28;20323;-67
2023/04/24 09:43:50;;;;;;;1.00;1.00;;;12.50;99.90;;;;;;5117712;28;20363;-66
2023/04/24 09:46:32;;;;;;;0.80;0.80;;;12.50;99.90;;;;;;5124623;28;20046;-66
2023/04/24 09:49:25;;;;;;;0.70;0.70;;;12.60;99.90;;;;;;5126558;28;20192;-67
2023/04/24 09:52:15;;;;;;;1.15;1.15;;;12.60;95.60;;;;;;5093027;28;20225;-65
2023/04/24 09:54:55;;;;;;;0.75;0.75;;;12.60;88.00;;;;;;5073453;28;20264;-68
2023/04/24 09:57:26;;;;;;;0.60;0.60;;;12.70;73.60;;;;;;5123579;28;20426;-65
2023/04/24 10:00:01;;;;;;;0.82;0.82;;;12.70;61.60;;;;;;5105015;28;20047;-67
2023/04/24 10:02:32;;;;;;;0.90;0.90;;;12.70;74.20;;;;;;5128212;28;20292;-65
2023/04/24 10:05:04;;;;;;;0.77;0.77;;;12.70;92.90;;;;;;5079697;28;20059;-67
2023/04/24 10:07:39;;;;;;;0.70;0.70;;;12.70;88.80;;;;;;5108246;28;20053;-67
2023/04/24 10:10:12;;;;;;;1.02;1.02;;;12.80;78.40;;;;;;5082425;28;20054;-66
2023/04/24 10:12:47;;;;;;;0.85;0.85;;;12.80;96.40;;;;;;5092157;28;20042;-68
2023/04/24 10:15:25;;;;;;;;;;;12.70;99.90;;;;;;5081155;28;20053;-64
2023/04/24 10:18:01;;;;;;;0.60;0.60;;;12.80;99.90;;;;;;5136539;28;20190;-66
2023/04/24 10:20:39;;;;;;;1.95;0.82;;;12.70;99.90;;;;;;5105322;28;20339;-67
2023/04/24 10:23:15;;;;;;;1.50;0.70;;;12.70;96.60;;;;;;5126235;28;20046;-67
2023/04/24 10:25:46;;;;;;;0.90;0.90;;;12.80;99.90;;;;;;5108087;28;20042;-67
2023/04/24 10:28:21;;;;;;;10.35;7.60;;;12.80;99.90;;;;;;5089971;28;20053;-68
2023/04/24 10:30:58;;;;;;;6.80;4.32;;;12.90;89.60;;;;;;5122293;28;20062;-65
2023/04/24 10:33:33;;;;;;;11.43;6.95;;;12.90;78.70;;;;;;5109691;28;20039;-67
2023/04/24 10:36:15;;;;;;;17.48;7.85;;;13.00;81.90;;;;;;5121509;28;20042;-68
2023/04/24 10:38:49;;;;;;;330.65;157.77;;;13.00;81.20;;;;;;5118325;28;20029;-65
2023/04/24 10:41:25;;;;;;;38.65;18.15;;;13.10;78.30;;;;;;5114259;28;20090;-69
2023/04/24 10:44:14;;;;;;;13.50;8.15;;;13.10;58.10;;;;;;5107304;28;20357;-68
2023/04/24 10:46:56;;;;;;;8.25;4.10;;;13.10;66.90;;;;;;5092826;28;20054;-65
2023/04/24 10:49:43;;;;;;;134.07;57.05;;;13.10;54.40;;;;;;5097602;28;20038;-67
2023/04/24 10:52:21;;;;;;;17.15;10.70;;;13.20;64.70;;;;;;5114196;28;20061;-68
2023/04/24 10:54:57;;;;;;;5.10;4.22;;;13.20;64.60;;;;;;5126538;28;20035;-66
2023/04/24 10:57:32;;;;;;;5.13;4.28;;;13.20;82.70;;;;;;5129833;28;20275;-66
2023/04/24 11:00:19;;;;;;;7.93;6.45;;;13.20;79.90;;;;;;5126968;28;20134;-69
2023/04/24 11:02:56;;;;;;;2.47;2.28;;;13.20;48.30;;;;;;5140612;28;20046;-65
2023/04/24 11:05:56;;;;;;;2.85;2.65;;;13.30;43.20;;;;;;5114064;28;20048;-64
2023/04/24 11:08:42;;;;;;;2.35;2.15;;;13.30;52.40;;;;;;5116760;28;20041;-66
2023/04/24 11:11:20;;;;;;;13.15;11.00;;;13.40;25.10;;;;;;5118993;28;20038;-67
2023/04/24 11:13:55;;;;;;;4.68;4.22;;;13.40;48.00;;;;;;5119663;28;20054;-68
2023/04/24 11:16:33;;;;;;;57.42;52.00;;;13.30;83.70;;;;;;5131592;28;20030;-67
2023/04/24 11:19:15;;;;;;;5.13;4.72;;;13.20;99.90;;;;;;5126688;28;20370;-66
2023/04/24 11:22:04;;;;;;;2.80;2.58;;;12.80;99.90;;;;;;5133382;28;20073;-69
2023/04/24 11:24:37;;;;;;;0.82;0.82;;;12.60;99.90;;;;;;5140302;28;20343;-68
2023/04/24 11:27:22;;;;;;;0.70;0.70;;;12.40;99.90;;;;;;5130022;28;20037;-70
2023/04/24 11:29:56;;;;;;;1.20;1.17;;;12.30;99.90;;;;;;5134501;28;20057;-66
2023/04/24 11:32:40;;;;;;;;;;;12.20;99.90;;;;;;5122014;28;20050;-65
2023/04/24 11:35:20;;;;;;;46.72;32.55;;;12.10;99.90;;;;;;5107806;28;19909;-66
2023/04/24 11:37:53;;;;;;;55.17;37.22;;;12.00;99.90;;;;;;5149691;28;20049;-68
2023/04/24 11:40:27;;;;;;;86.60;56.00;;;11.90;99.90;;;;;;5138398;28;20187;-71
2023/04/24 11:43:00;;;;;;;108.57;67.30;;;11.90;99.90;;;;;;5146753;28;20046;-67
2023/04/24 11:45:34;;;;;;;36.92;27.98;;;11.90;99.90;;;;;;5106029;28;20144;-70
2023/04/24 11:48:06;;;;;;;2.80;2.55;;;11.90;99.90;;;;;;5134420;28;20057;-68
2023/04/24 11:50:46;;;;;;;4.50;4.13;;;11.90;99.90;;;;;;5127935;28;20045;-69
2023/04/24 11:53:21;;;;;;;6.68;6.07;;;12.00;99.90;;;;;;5113219;28;20343;-69
2023/04/24 11:55:55;;;;;;;5.15;4.70;;;12.20;99.90;;;;;;5125162;28;20034;-67
2023/04/24 11:58:34;;;;;;;;;;;12.30;99.90;;;;;;5130230;28;20553;-70
2023/04/24 12:01:06;;;;;;;7.15;6.57;;;12.40;99.90;;;;;;5106538;28;19923;-68
2023/04/24 12:03:42;;;;;;;54.10;47.35;;;12.50;99.90;;;;;;5119390;28;20487;-68
2023/04/24 12:06:14;;;;;;;126.35;112.55;;;12.60;99.90;;;;;;5115339;28;20056;-68
2023/04/24 12:08:47;;;;;;;24.30;21.90;;;12.70;99.90;;;;;;5148323;28;20295;-68
2023/04/24 12:11:34;;;;;;;17.02;15.30;;;12.70;99.90;;;;;;5129240;28;20397;-69
2023/04/24 12:14:17;;;;;;;9.13;8.27;;;12.80;99.90;;;;;;5146784;28;20226;-67
2023/04/24 12:16:52;;;;;;;1.85;1.73;;;13.00;99.90;;;;;;5130050;28;20169;-68
2023/04/24 12:19:27;;;;;;;85.97;77.47;;;13.20;99.90;;;;;;5098766;28;20057;-69
2023/04/24 12:22:07;;;;;;;3.10;2.85;;;13.40;99.90;;;;;;5117503;28;20053;-70
2023/04/24 12:25:01;;;;;;;26.80;24.30;;;13.50;99.90;;;;;;5129573;28;20046;-68
2023/04/24 12:27:36;;;;;;;7.15;6.45;;;13.70;99.90;;;;;;5122706;28;20050;-68
2023/04/24 12:30:12;;;;;;;;;;;13.70;99.90;;;;;;5112784;28;20234;-67
2023/04/24 12:32:49;;;;;;;12.60;11.25;;;13.80;99.90;;;;;;5124816;28;20039;-67
2023/04/24 12:35:28;;;;;;;2.75;2.55;;;13.90;99.90;;;;;;5119811;28;20171;-65
2023/04/24 12:38:20;;;;;;;2.17;1.55;;;14.00;99.90;;;;;;5142713;28;20042;-68
2023/04/24 12:41:24;;;;;;;1.35;1.25;;;14.10;99.90;;;;;;5148421;28;20030;-68
2023/04/24 12:43:56;;;;;;;1.80;1.70;;;14.20;1.00;;;;;;5129654;28;20228;-67
2023/04/24 12:46:32;;;;;;;7.63;7.03;;;14.40;99.90;;;;;;5132397;28;20108;-67
2023/04/24 12:49:06;;;;;;;1.35;1.25;;;14.50;97.50;;;;;;5119541;28;20062;-69
2023/04/24 12:51:38;;;;;;;2.25;2.05;;;14.50;94.30;;;;;;5142210;28;20253;-66
2023/04/24 12:54:10;;;;;;;1.25;1.15;;;14.60;26.50;;;;;;5143046;28;20046;-66
2023/04/24 12:56:41;;;;;;;1.10;1.10;;;14.60;1.00;;;;;;5151708;28;20025;-66
2023/04/24 12:59:16;;;;;;;0.90;0.90;;;14.70;1.00;;;;;;5146768;28;20322;-62
2023/04/24 13:01:50;;;;;;;1.25;1.15;;;14.90;1.00;;;;;;5146040;28;20054;-67
2023/04/24 13:04:24;;;;;;;121.22;43.85;;;14.90;1.00;;;;;;5134280;28;20053;-65
2023/04/24 13:06:56;;;;;;;28.70;25.65;;;15.00;1.00;;;;;;5128839;28;20271;-65
2023/04/24 13:09:37;;;;;;;51.85;43.63;;;15.10;1.00;;;;;;5118408;28;20054;-64
2023/04/24 13:12:10;;;;;;;18.25;14.63;;;15.00;1.00;;;;;;5143766;28;20049;-67
2023/04/24 13:14:45;;;;;;;24.63;20.95;;;14.90;1.00;;;;;;5123390;28;20137;-67
2023/04/24 13:17:17;;;;;;;9.65;7.13;;;14.50;1.00;;;;;;5134542;28;20046;-65
2023/04/24 13:19:51;;;;;;;74.57;66.95;;;14.30;1.00;;;;;;5137418;28;20038;-67
2023/04/24 13:22:22;;;;;;;3.17;2.78;;;14.20;1.00;;;;;;5150365;28;20216;-67
2023/04/24 13:24:54;;;;;;;1.60;1.50;;;14.20;1.00;;;;;;5124666;28;20065;-66
2023/04/24 13:27:30;;;;;;;2.13;1.98;;;14.10;1.00;;;;;;5116526;28;20454;-67
2023/04/24 13:30:05;;;;;;;1.00;1.00;;;14.10;1.00;;;;;;5112251;28;20050;-69
2023/04/24 13:32:37;;;;;;;1.35;1.25;;;14.20;1.00;;;;;;5133089;28;20469;-65
2023/04/24 13:35:12;;;;;;;1.10;1.10;;;14.20;1.00;;;;;;5150209;28;20042;-66
2023/04/24 13:37:44;;;;;;;;;;;14.20;1.00;;;;;;5145654;28;20343;-65